createdAt,value
2023-08-07T00:02:08.113Z,62.14
2023-08-07T00:04:35.737Z,62.23
2023-08-07T00:07:03.566Z,62.05
2023-08-07T00:09:32.089Z,62.14
2023-08-07T00:11:59.696Z,62.31
2023-08-07T00:14:27.381Z,62.44
2023-08-07T00:16:54.966Z,62.97
2023-08-07T00:22:07.679Z,62.99
2023-08-07T00:27:20.449Z,63.25
2023-08-07T00:29:48.055Z,63.44
2023-08-07T00:32:34.674Z,64.01
2023-08-07T00:35:02.405Z,63.54
2023-08-07T00:37:30.916Z,63.54
2023-08-07T00:39:58.602Z,63.18
2023-08-07T00:42:26.205Z,63.47
2023-08-07T00:44:54.207Z,63.61
2023-08-07T00:47:22.129Z,63.51
2023-08-07T00:49:50.039Z,63.86
2023-08-07T00:52:20.372Z,64.33
2023-08-07T00:54:48.466Z,64.14
2023-08-07T00:57:18.110Z,64.15
2023-08-07T00:59:46.133Z,64.00
2023-08-07T01:02:14.902Z,64.17
2023-08-07T01:04:42.616Z,64.23
2023-08-07T01:10:14.258Z,64.54
2023-08-07T01:12:53.889Z,64.51
2023-08-07T01:15:31.099Z,64.60
2023-08-07T01:18:01.009Z,64.35
2023-08-07T01:23:32.749Z,64.50
2023-08-07T01:26:00.961Z,64.41
2023-08-07T01:28:34.310Z,64.65
2023-08-07T01:31:25.663Z,64.84
2023-08-07T01:34:00.452Z,65.09
2023-08-07T01:36:30.843Z,64.72
2023-08-07T01:38:59.857Z,64.67
2023-08-07T01:41:28.463Z,64.81
2023-08-07T01:43:56.321Z,64.93
2023-08-07T01:46:24.011Z,65.04
2023-08-07T01:48:51.686Z,65.15
2023-08-07T01:51:37.524Z,65.10
2023-08-07T01:54:05.180Z,65.14
2023-08-07T01:56:32.763Z,65.26
2023-08-07T01:59:00.361Z,65.38
2023-08-07T02:01:27.968Z,65.37
2023-08-07T02:03:55.658Z,65.26
2023-08-07T02:06:23.241Z,65.29
2023-08-07T02:08:50.890Z,65.62
2023-08-07T02:11:18.629Z,65.58
2023-08-07T02:13:46.378Z,65.69
2023-08-07T02:16:15.057Z,65.42
2023-08-07T02:18:42.971Z,65.29
2023-08-07T02:21:30.407Z,65.09
2023-08-07T02:23:58.204Z,65.72
2023-08-07T02:26:25.786Z,65.22
2023-08-07T02:28:53.453Z,64.85
2023-08-07T02:31:21.137Z,64.80
2023-08-07T02:33:48.764Z,64.68
2023-08-07T02:36:16.356Z,64.56
2023-08-07T02:38:44.093Z,64.48
2023-08-07T02:41:11.662Z,64.53
2023-08-07T02:43:39.417Z,64.20
2023-08-07T02:46:07.073Z,64.32
2023-08-07T02:48:34.774Z,64.23
2023-08-07T02:51:02.326Z,63.84
2023-08-07T02:53:29.915Z,63.40
2023-08-07T02:56:15.873Z,63.63
2023-08-07T02:58:43.535Z,63.12
2023-08-07T03:01:12.840Z,63.25
2023-08-07T03:03:40.595Z,62.96
2023-08-07T03:06:08.190Z,62.82
2023-08-07T03:08:35.863Z,62.63
2023-08-07T03:11:03.479Z,62.47
2023-08-07T03:13:31.147Z,62.33
2023-08-07T03:16:17.535Z,62.08
2023-08-07T03:18:46.309Z,62.03
2023-08-07T03:21:14.065Z,61.58
2023-08-07T03:23:42.801Z,61.61
2023-08-07T03:26:29.938Z,61.41
2023-08-07T03:28:57.849Z,60.67
2023-08-07T03:31:25.445Z,61.02
2023-08-07T03:36:57.617Z,60.04
2023-08-07T03:39:25.962Z,59.91
2023-08-07T03:41:53.682Z,59.64
2023-08-07T03:44:21.417Z,59.69
2023-08-07T03:46:49.063Z,59.27
2023-08-07T03:49:16.752Z,59.43
2023-08-07T03:54:29.295Z,58.70
2023-08-07T03:56:57.150Z,58.38
2023-08-07T03:59:25.112Z,58.34
2023-08-07T04:01:52.769Z,58.01
2023-08-07T04:04:39.223Z,58.04
2023-08-07T04:07:06.915Z,57.67
2023-08-07T04:09:53.162Z,57.52
2023-08-07T04:12:21.905Z,57.24
2023-08-07T04:15:07.978Z,56.79
2023-08-07T04:17:54.378Z,56.87
2023-08-07T04:20:22.086Z,56.97
2023-08-07T04:22:49.687Z,57.11
2023-08-07T04:25:17.434Z,56.57
2023-08-07T04:27:45.138Z,56.56
2023-08-07T04:30:13.575Z,56.57
2023-08-07T04:32:41.885Z,56.31
2023-08-07T04:35:10.515Z,56.14
2023-08-07T04:37:38.197Z,55.75
2023-08-07T04:40:06.114Z,56.05
2023-08-07T04:42:33.846Z,55.58
2023-08-07T04:45:01.377Z,55.32
2023-08-07T04:47:30.118Z,54.54
2023-08-07T04:49:57.886Z,54.50
2023-08-07T04:52:26.900Z,54.01
2023-08-07T04:54:54.806Z,53.61
2023-08-07T04:57:22.467Z,53.74
2023-08-07T04:59:50.174Z,53.00
2023-08-07T05:02:17.777Z,52.82
2023-08-07T05:04:45.646Z,52.15
2023-08-07T05:07:13.433Z,51.77
2023-08-07T05:09:41.000Z,51.41
2023-08-07T05:12:27.474Z,50.40
2023-08-07T05:14:55.193Z,50.91
2023-08-07T05:17:23.148Z,49.96
2023-08-07T05:19:50.893Z,49.82
2023-08-07T05:22:18.499Z,49.46
2023-08-07T05:24:46.694Z,48.85
2023-08-07T05:27:14.261Z,48.55
2023-08-07T05:29:45.182Z,48.64
2023-08-07T05:32:14.391Z,47.73
2023-08-07T05:35:01.144Z,47.15
2023-08-07T05:37:47.608Z,46.92
2023-08-07T05:40:15.220Z,46.63
2023-08-07T05:42:43.041Z,46.83
2023-08-07T05:45:11.962Z,46.89
2023-08-07T05:47:39.713Z,46.38
2023-08-07T05:50:07.818Z,46.41
2023-08-07T05:52:36.401Z,46.30
2023-08-07T05:55:07.485Z,46.40
2023-08-07T05:57:36.256Z,45.76
2023-08-07T06:00:05.011Z,44.95
2023-08-07T06:02:40.161Z,44.63
2023-08-07T06:05:09.008Z,44.27
2023-08-07T06:07:36.707Z,44.14
2023-08-07T06:10:04.674Z,43.39
2023-08-07T06:12:32.690Z,43.06
2023-08-07T06:15:00.367Z,42.96
2023-08-07T06:17:28.693Z,42.79
2023-08-07T06:19:56.334Z,42.86
2023-08-07T06:22:24.180Z,42.83
2023-08-07T06:24:51.938Z,43.00
2023-08-07T06:27:23.101Z,42.19
2023-08-07T06:29:50.732Z,42.15
2023-08-07T06:32:19.523Z,41.88
2023-08-07T06:34:47.930Z,41.65
2023-08-07T06:37:15.547Z,41.43
2023-08-07T06:39:43.208Z,41.13
2023-08-07T06:42:10.807Z,41.42
2023-08-07T06:44:38.471Z,40.73
2023-08-07T06:47:24.444Z,40.52
2023-08-07T06:50:11.358Z,39.06
2023-08-07T06:52:39.532Z,38.74
2023-08-07T06:55:08.022Z,37.81
2023-08-07T06:57:36.056Z,37.11
2023-08-07T07:00:04.348Z,37.49
2023-08-07T07:02:34.020Z,37.42
2023-08-07T07:05:02.181Z,37.23
2023-08-07T07:07:31.257Z,36.80
2023-08-07T07:10:02.095Z,36.00
2023-08-07T07:12:32.765Z,35.77
2023-08-07T07:15:00.424Z,35.27
2023-08-07T07:17:28.053Z,34.75
2023-08-07T07:19:56.468Z,34.12
2023-08-07T07:22:43.067Z,33.80
2023-08-07T07:25:10.843Z,33.31
2023-08-07T07:27:38.241Z,32.61
2023-08-07T07:30:06.810Z,31.91
2023-08-07T07:32:34.635Z,31.64
2023-08-07T07:35:02.756Z,31.69
2023-08-07T07:37:32.599Z,30.82
2023-08-07T07:40:00.334Z,30.41
2023-08-07T07:42:27.950Z,30.49
2023-08-07T07:44:56.042Z,30.51
2023-08-07T07:47:23.624Z,30.64
2023-08-07T07:50:07.053Z,29.71
2023-08-07T07:52:34.769Z,30.14
2023-08-07T07:55:02.442Z,30.30
2023-08-07T07:57:30.526Z,30.07
2023-08-07T07:59:58.318Z,29.78
2023-08-07T08:02:26.027Z,29.23
2023-08-07T08:04:53.919Z,29.18
2023-08-07T08:07:21.797Z,29.38
2023-08-07T08:10:09.855Z,28.82
2023-08-07T08:12:38.010Z,28.47
2023-08-07T08:15:06.156Z,27.77
2023-08-07T08:17:34.910Z,27.22
2023-08-07T08:20:02.661Z,26.38
2023-08-07T08:22:33.275Z,26.17
2023-08-07T08:25:00.945Z,25.60
2023-08-07T08:27:28.470Z,25.91
2023-08-07T08:29:56.166Z,26.09
2023-08-07T08:32:23.791Z,26.37
2023-08-07T08:34:51.421Z,26.73
2023-08-07T08:37:19.442Z,26.08
2023-08-07T08:39:47.544Z,25.89
2023-08-07T08:42:19.570Z,24.79
2023-08-07T08:47:38.657Z,22.98
2023-08-07T08:50:25.640Z,22.53
2023-08-07T08:52:56.591Z,23.01
2023-08-07T08:55:24.737Z,23.08
2023-08-07T08:58:11.236Z,23.02
2023-08-07T09:00:39.109Z,22.99
2023-08-07T09:03:06.923Z,22.28
2023-08-07T09:05:36.757Z,22.28
2023-08-07T09:08:06.518Z,22.32
2023-08-07T09:10:35.777Z,22.04
2023-08-07T09:13:06.821Z,21.94
2023-08-07T09:15:34.701Z,21.80
2023-08-07T09:18:08.677Z,21.49
2023-08-07T09:20:40.817Z,21.28
2023-08-07T09:23:08.880Z,21.34
2023-08-07T09:26:02.110Z,21.92
2023-08-07T09:28:33.103Z,21.09
2023-08-07T09:31:03.154Z,21.84
2023-08-07T09:33:34.283Z,21.20
2023-08-07T09:36:02.881Z,21.26
2023-08-07T09:38:33.969Z,21.50
2023-08-07T09:41:06.971Z,20.86
2023-08-07T09:43:38.162Z,21.40
2023-08-07T09:46:07.273Z,21.21
2023-08-07T09:48:45.111Z,21.06
2023-08-07T09:51:12.939Z,20.65
2023-08-07T09:53:41.663Z,20.55
2023-08-07T09:56:10.256Z,20.33
2023-08-07T09:58:37.885Z,20.45
2023-08-07T10:01:05.863Z,19.71
2023-08-07T10:03:33.967Z,19.38
2023-08-07T10:06:02.592Z,18.35
2023-08-07T10:08:31.119Z,18.42
2023-08-07T10:11:18.548Z,17.85
2023-08-07T10:13:46.762Z,17.61
2023-08-07T10:16:33.173Z,17.31
2023-08-07T10:19:00.870Z,17.49
2023-08-07T10:21:28.901Z,17.21
2023-08-07T10:23:58.721Z,17.10
2023-08-07T10:26:27.458Z,16.94
2023-08-07T10:28:55.739Z,17.00
2023-08-07T10:31:43.542Z,17.10
2023-08-07T10:34:11.431Z,17.35
2023-08-07T10:36:57.719Z,16.80
2023-08-07T10:39:25.731Z,16.42
2023-08-07T10:41:56.458Z,16.31
2023-08-07T10:44:32.224Z,16.10
2023-08-07T10:49:38.188Z,15.04
2023-08-07T10:52:26.204Z,14.52
2023-08-07T10:54:55.630Z,15.27
2023-08-07T10:57:24.307Z,15.40
2023-08-07T10:59:57.648Z,15.96
2023-08-07T11:02:29.490Z,15.96
2023-08-07T11:04:57.995Z,15.54
2023-08-07T11:07:45.732Z,15.23
2023-08-07T11:10:18.084Z,15.63
2023-08-07T11:12:47.114Z,15.48
2023-08-07T11:15:15.967Z,15.57
2023-08-07T11:17:44.061Z,15.27
2023-08-07T11:20:12.312Z,15.42
2023-08-07T11:22:40.580Z,16.22
2023-08-07T11:25:12.180Z,15.89
2023-08-07T11:27:39.895Z,15.86
2023-08-07T11:30:11.957Z,15.35
2023-08-07T11:32:39.688Z,15.03
2023-08-07T11:35:08.011Z,15.30
2023-08-07T11:37:35.707Z,15.48
2023-08-07T11:40:21.661Z,15.49
2023-08-07T11:42:49.347Z,15.45
2023-08-07T11:45:17.079Z,15.83
2023-08-07T11:47:44.959Z,15.98
2023-08-07T11:50:12.994Z,16.48
2023-08-07T11:52:41.389Z,16.31
2023-08-07T11:55:10.537Z,16.89
2023-08-07T11:57:41.187Z,17.10
2023-08-07T12:00:15.321Z,16.64
2023-08-07T12:02:45.826Z,16.97
2023-08-07T12:05:13.773Z,16.74
2023-08-07T12:07:41.438Z,17.42
2023-08-07T12:10:10.871Z,17.87
2023-08-07T12:12:57.701Z,17.25
2023-08-07T12:15:25.427Z,17.19
2023-08-07T12:18:02.369Z,17.62
2023-08-07T12:20:30.233Z,17.25
2023-08-07T12:22:57.761Z,17.65
2023-08-07T12:25:25.389Z,18.71
2023-08-07T12:27:53.846Z,18.12
2023-08-07T12:30:21.574Z,17.77
2023-08-07T12:32:49.187Z,17.77
2023-08-07T12:35:16.934Z,18.18
2023-08-07T12:37:45.075Z,18.05
2023-08-07T12:42:43.306Z,19.20
2023-08-07T12:45:11.308Z,19.20
2023-08-07T12:47:39.163Z,19.84
2023-08-07T12:50:07.737Z,19.60
2023-08-07T12:52:36.309Z,20.68
2023-08-07T12:55:05.180Z,22.18
2023-08-07T13:00:37.224Z,24.65
2023-08-07T13:03:05.089Z,24.56
2023-08-07T13:05:32.720Z,25.76
2023-08-07T13:08:00.581Z,26.60
2023-08-07T13:10:32.571Z,27.78
2023-08-07T13:13:02.637Z,28.76
2023-08-07T13:15:30.642Z,29.46
2023-08-07T13:18:18.004Z,30.22
2023-08-07T13:20:46.106Z,30.25
2023-08-07T13:23:15.300Z,31.37
2023-08-07T13:25:43.018Z,31.97
2023-08-07T13:28:10.562Z,31.97
2023-08-07T13:30:38.368Z,32.49
2023-08-07T13:33:06.159Z,32.86
2023-08-07T13:35:37.309Z,33.17
2023-08-07T13:38:07.101Z,32.94
2023-08-07T13:40:35.723Z,32.99
2023-08-07T13:43:09.071Z,33.40
2023-08-07T13:45:55.899Z,33.52
2023-08-07T13:51:12.852Z,34.00
2023-08-07T13:53:40.439Z,34.05
2023-08-07T13:56:10.070Z,34.42
2023-08-07T13:58:37.707Z,34.61
2023-08-07T14:01:05.678Z,34.49
2023-08-07T14:03:33.681Z,34.43
2023-08-07T14:06:02.854Z,34.73
2023-08-07T14:08:30.545Z,34.64
2023-08-07T14:10:58.111Z,34.89
2023-08-07T14:13:25.830Z,34.83
2023-08-07T14:15:53.339Z,35.40
2023-08-07T14:18:21.112Z,35.59
2023-08-07T14:21:00.774Z,35.53
2023-08-07T14:23:33.854Z,35.32
2023-08-07T14:26:02.973Z,35.46
2023-08-07T14:28:30.663Z,35.81
2023-08-07T14:31:00.623Z,35.93
2023-08-07T14:33:29.548Z,36.33
2023-08-07T14:35:57.303Z,36.22
2023-08-07T14:38:24.862Z,36.38
2023-08-07T14:40:52.616Z,36.70
2023-08-07T14:43:20.235Z,36.64
2023-08-07T14:46:06.418Z,37.01
2023-08-07T14:48:34.213Z,36.86
2023-08-07T14:51:01.771Z,36.85
2023-08-07T14:53:29.775Z,37.19
2023-08-07T14:55:58.061Z,37.10
2023-08-07T14:58:25.840Z,37.24
2023-08-07T15:00:56.650Z,37.07
2023-08-07T15:03:43.465Z,37.48
2023-08-07T15:06:11.335Z,37.50
2023-08-07T15:08:38.950Z,37.62
2023-08-07T15:11:25.048Z,37.20
2023-08-07T15:13:53.088Z,37.40
2023-08-07T15:16:20.753Z,37.55
2023-08-07T15:18:48.993Z,37.67
2023-08-07T15:21:16.539Z,37.73
2023-08-07T15:23:44.253Z,37.99
2023-08-07T15:26:30.597Z,38.54
2023-08-07T15:28:58.334Z,38.28
2023-08-07T15:31:25.932Z,37.94
2023-08-07T15:33:54.372Z,38.02
2023-08-07T15:36:22.244Z,37.95
2023-08-07T15:38:49.839Z,37.88
2023-08-07T15:41:17.614Z,38.24
2023-08-07T15:43:45.676Z,38.01
2023-08-07T15:46:13.394Z,37.97
2023-08-07T15:48:41.084Z,37.91
2023-08-07T15:51:08.945Z,38.06
2023-08-07T15:53:36.917Z,38.38
2023-08-07T15:56:05.027Z,38.34
2023-08-07T15:58:32.739Z,38.04
2023-08-07T16:01:00.411Z,38.36
2023-08-07T16:03:28.397Z,38.31
2023-08-07T16:05:56.038Z,38.18
2023-08-07T16:08:24.307Z,38.43
2023-08-07T16:10:53.900Z,38.33
2023-08-07T16:13:24.286Z,38.41
2023-08-07T16:15:52.038Z,38.59
2023-08-07T16:18:19.737Z,38.46
2023-08-07T16:20:47.439Z,38.81
2023-08-07T16:23:15.042Z,38.71
2023-08-07T16:25:42.679Z,38.87
2023-08-07T16:28:10.370Z,38.82
2023-08-07T16:30:38.061Z,38.83
2023-08-07T16:33:06.018Z,38.93
2023-08-07T16:35:33.719Z,38.97
2023-08-07T16:38:01.408Z,39.12
2023-08-07T16:40:30.059Z,39.15
2023-08-07T16:42:57.826Z,39.11
2023-08-07T16:45:26.400Z,39.31
2023-08-07T16:47:54.048Z,39.57
2023-08-07T16:50:21.604Z,39.43
2023-08-07T16:52:49.453Z,40.03
2023-08-07T16:58:02.143Z,40.26
2023-08-07T17:00:29.828Z,40.25
2023-08-07T17:02:57.858Z,40.44
2023-08-07T17:05:26.461Z,40.87
2023-08-07T17:07:54.149Z,40.87
2023-08-07T17:10:21.702Z,40.68
2023-08-07T17:12:49.719Z,41.04
2023-08-07T17:15:17.206Z,40.90
2023-08-07T17:17:44.979Z,41.11
2023-08-07T17:20:13.123Z,41.36
2023-08-07T17:22:40.933Z,41.53
2023-08-07T17:25:09.025Z,41.85
2023-08-07T17:27:36.711Z,42.16
2023-08-07T17:30:04.930Z,42.43
2023-08-07T17:32:32.751Z,42.51
2023-08-07T17:35:01.612Z,42.36
2023-08-07T17:37:29.940Z,42.73
2023-08-07T17:39:57.562Z,42.64
2023-08-07T17:42:25.184Z,42.96
2023-08-07T17:44:52.871Z,43.12
2023-08-07T17:47:20.413Z,43.02
2023-08-07T17:49:48.136Z,43.48
2023-08-07T17:52:16.336Z,43.25
2023-08-07T17:54:45.067Z,43.73
2023-08-07T17:57:31.801Z,43.86
2023-08-07T18:00:02.688Z,43.87
2023-08-07T18:02:35.145Z,43.96
2023-08-07T18:05:03.975Z,43.78
2023-08-07T18:07:31.896Z,44.08
2023-08-07T18:09:59.480Z,44.22
2023-08-07T18:12:27.074Z,44.00
2023-08-07T18:14:54.870Z,43.97
2023-08-07T18:17:22.588Z,44.29
2023-08-07T18:19:50.329Z,44.46
2023-08-07T18:22:19.635Z,44.64
2023-08-07T18:24:47.259Z,44.59
2023-08-07T18:27:15.371Z,44.54
2023-08-07T18:29:43.049Z,44.88
2023-08-07T18:32:10.652Z,45.35
2023-08-07T18:34:38.274Z,45.33
2023-08-07T18:37:05.886Z,45.63
2023-08-07T18:39:38.529Z,45.36
2023-08-07T18:42:07.268Z,45.63
2023-08-07T18:44:35.263Z,45.74
2023-08-07T18:47:03.020Z,45.96
2023-08-07T18:49:30.761Z,45.65
2023-08-07T18:52:17.852Z,45.77
2023-08-07T18:54:45.830Z,45.99
2023-08-07T18:57:14.058Z,46.16
2023-08-07T18:59:41.623Z,46.31
2023-08-07T19:02:09.365Z,46.16
2023-08-07T19:04:37.064Z,46.78
2023-08-07T19:07:05.097Z,46.81
2023-08-07T19:09:32.837Z,46.72
2023-08-07T19:12:00.470Z,46.97
2023-08-07T19:14:28.101Z,46.88
2023-08-07T19:16:55.686Z,46.86
2023-08-07T19:19:23.473Z,47.20
2023-08-07T19:21:51.011Z,47.36
2023-08-07T19:24:18.668Z,47.47
2023-08-07T19:26:46.206Z,47.21
2023-08-07T19:29:14.116Z,47.63
2023-08-07T19:31:43.142Z,47.30
2023-08-07T19:34:13.667Z,47.46
2023-08-07T19:36:41.751Z,47.56
2023-08-07T19:39:09.494Z,47.60
2023-08-07T19:41:37.520Z,47.70
2023-08-07T19:44:05.281Z,47.15
2023-08-07T19:46:33.027Z,47.35
2023-08-07T19:49:00.825Z,47.65
2023-08-07T19:51:28.425Z,47.33
2023-08-07T19:54:21.232Z,47.58
2023-08-07T19:56:48.895Z,47.54
2023-08-07T19:59:16.442Z,47.54
2023-08-07T20:01:44.185Z,47.41
2023-08-07T20:04:14.856Z,47.35
2023-08-07T20:06:42.726Z,47.50
2023-08-07T20:09:10.337Z,47.55
2023-08-07T20:11:38.916Z,47.66
2023-08-07T20:14:06.639Z,47.41
2023-08-07T20:16:34.323Z,47.53
2023-08-07T20:19:02.007Z,47.66
2023-08-07T20:21:29.714Z,47.57
2023-08-07T20:23:57.982Z,47.76
2023-08-07T20:26:25.634Z,47.66
2023-08-07T20:28:53.322Z,47.58
2023-08-07T20:31:21.004Z,47.44
2023-08-07T20:33:48.595Z,47.45
2023-08-07T20:36:16.973Z,47.83
2023-08-07T20:38:44.662Z,48.05
2023-08-07T20:41:12.284Z,47.98
2023-08-07T20:43:39.865Z,48.25
2023-08-07T20:46:08.213Z,48.23
2023-08-07T20:51:21.127Z,48.27
2023-08-07T20:53:48.719Z,48.56
2023-08-07T20:56:16.441Z,48.54
2023-08-07T20:58:44.037Z,48.75
2023-08-07T21:01:11.719Z,49.00
2023-08-07T21:03:39.378Z,49.19
2023-08-07T21:06:07.093Z,49.46
2023-08-07T21:08:34.694Z,49.14
2023-08-07T21:11:02.392Z,49.50
2023-08-07T21:13:30.029Z,49.98
2023-08-07T21:15:57.834Z,49.88
2023-08-07T21:18:25.409Z,49.63
2023-08-07T21:20:53.008Z,49.89
2023-08-07T21:23:20.697Z,50.10
2023-08-07T21:25:50.571Z,50.14
2023-08-07T21:28:18.300Z,50.59
2023-08-07T21:30:45.971Z,50.70
2023-08-07T21:33:13.773Z,50.60
2023-08-07T21:35:41.426Z,50.78
2023-08-07T21:38:09.105Z,51.06
2023-08-07T21:40:55.259Z,51.05
2023-08-07T21:43:41.649Z,51.02
2023-08-07T21:46:09.488Z,50.97
2023-08-07T21:48:37.100Z,51.33
2023-08-07T21:51:05.003Z,51.11
2023-08-07T21:53:33.003Z,51.46
2023-08-07T21:56:00.760Z,51.22
2023-08-07T21:58:28.393Z,51.32
2023-08-07T22:00:56.035Z,51.57
2023-08-07T22:03:23.631Z,51.55
2023-08-07T22:05:52.367Z,51.78
2023-08-07T22:08:20.069Z,51.91
2023-08-07T22:10:47.839Z,51.72
2023-08-07T22:13:15.428Z,51.89
2023-08-07T22:15:43.335Z,51.75
2023-08-07T22:18:11.043Z,52.32
2023-08-07T22:20:38.796Z,52.16
2023-08-07T22:23:06.426Z,52.22
2023-08-07T22:25:34.072Z,52.41
2023-08-07T22:28:01.696Z,52.31
2023-08-07T22:30:29.402Z,52.51
2023-08-07T22:32:57.407Z,53.04
2023-08-07T22:35:25.238Z,53.16
2023-08-07T22:37:52.974Z,53.40
2023-08-07T22:40:20.666Z,53.52
2023-08-07T22:43:07.173Z,53.90
2023-08-07T22:45:54.384Z,54.04
2023-08-07T22:48:22.169Z,54.05
2023-08-07T22:50:49.948Z,54.07
2023-08-07T22:53:17.603Z,54.41
2023-08-07T22:55:48.386Z,54.85
2023-08-07T22:58:16.076Z,54.85
2023-08-07T23:00:43.647Z,54.50
2023-08-07T23:03:11.638Z,54.39
2023-08-07T23:05:39.304Z,54.65
2023-08-07T23:10:53.254Z,54.73
2023-08-07T23:13:20.898Z,54.63
2023-08-07T23:16:06.952Z,54.73
2023-08-07T23:18:53.234Z,54.81
2023-08-07T23:21:21.086Z,54.54
2023-08-07T23:23:48.692Z,54.75
2023-08-07T23:26:16.347Z,54.57
2023-08-07T23:28:44.000Z,54.74
2023-08-07T23:31:11.726Z,54.63
2023-08-07T23:33:39.316Z,54.58
2023-08-07T23:36:07.024Z,54.76
2023-08-07T23:38:52.963Z,54.61
2023-08-07T23:41:20.693Z,54.82
2023-08-07T23:43:48.348Z,54.67
2023-08-07T23:46:16.377Z,54.50
2023-08-07T23:48:43.995Z,54.63
2023-08-07T23:51:11.606Z,54.56
2023-08-07T23:53:57.590Z,54.70
2023-08-07T23:56:43.693Z,54.28
2023-08-07T23:59:11.467Z,54.51
